createdAt,value
2023-01-31T00:00:29.650Z,2.97
2023-01-31T00:03:15.022Z,3.83
2023-01-31T00:06:10.121Z,2.97
2023-01-31T00:08:56.417Z,5.10
2023-01-31T00:11:41.809Z,4.57
2023-01-31T00:14:27.059Z,2.50
2023-01-31T00:17:12.249Z,5.27
2023-01-31T00:19:57.594Z,2.50
2023-01-31T00:22:42.825Z,3.47
2023-01-31T00:25:28.009Z,3.63
2023-01-31T00:28:13.310Z,4.63
2023-01-31T00:30:58.775Z,2.70
2023-01-31T00:33:47.572Z,3.10
2023-01-31T00:36:34.996Z,2.77
2023-01-31T00:39:20.279Z,2.53
2023-01-31T00:42:05.550Z,4.40
2023-01-31T00:44:51.383Z,3.40
2023-01-31T00:47:37.015Z,2.33
2023-01-31T00:50:23.490Z,3.03
2023-01-31T00:53:09.359Z,3.37
2023-01-31T00:56:01.010Z,3.13
2023-01-31T00:58:46.624Z,4.07
2023-01-31T01:01:32.048Z,3.73
2023-01-31T01:04:17.374Z,2.60
2023-01-31T01:07:02.847Z,3.67
2023-01-31T01:09:48.138Z,3.00
2023-01-31T01:12:33.439Z,1.90
2023-01-31T01:15:19.163Z,2.07
2023-01-31T01:18:05.131Z,3.23
2023-01-31T01:20:50.309Z,2.40
2023-01-31T01:23:36.786Z,2.80
2023-01-31T01:26:25.220Z,2.90
2023-01-31T01:29:10.933Z,3.73
2023-01-31T01:31:56.328Z,2.53
2023-01-31T01:34:41.556Z,3.77
2023-01-31T01:37:26.856Z,2.17
2023-01-31T01:40:12.385Z,2.57
2023-01-31T01:42:57.802Z,2.60
2023-01-31T01:45:44.368Z,2.97
2023-01-31T01:48:30.289Z,3.80
2023-01-31T01:51:19.341Z,2.97
2023-01-31T01:54:09.831Z,2.70
2023-01-31T01:57:00.136Z,3.27
2023-01-31T01:59:49.881Z,3.33
2023-01-31T02:02:36.267Z,2.63
2023-01-31T02:05:28.194Z,3.70
2023-01-31T02:08:17.337Z,2.23
2023-01-31T02:11:29.793Z,2.37
2023-01-31T02:14:17.853Z,2.47
2023-01-31T02:17:03.136Z,2.50
2023-01-31T02:19:58.483Z,4.50
2023-01-31T02:23:05.528Z,2.57
2023-01-31T02:26:25.707Z,3.13
2023-01-31T02:30:00.161Z,2.30
2023-01-31T02:33:10.442Z,2.67
2023-01-31T02:36:14.082Z,2.20
2023-01-31T02:39:05.803Z,2.65
2023-01-31T02:41:56.565Z,1.93
2023-01-31T02:45:06.606Z,2.47
2023-01-31T02:48:01.841Z,2.20
2023-01-31T02:51:36.666Z,2.77
2023-01-31T02:54:46.088Z,6.60
2023-01-31T02:57:31.691Z,3.47
2023-01-31T03:00:19.853Z,1.27
2023-01-31T03:03:08.379Z,2.40
2023-01-31T03:06:33.464Z,2.53
2023-01-31T03:09:28.424Z,3.03
2023-01-31T03:12:49.032Z,2.80
2023-01-31T03:16:08.156Z,3.43
2023-01-31T03:19:14.081Z,2.50
2023-01-31T03:22:16.417Z,3.10
2023-01-31T03:25:06.364Z,2.03
2023-01-31T03:27:58.098Z,1.93
2023-01-31T03:30:56.023Z,2.07
2023-01-31T03:33:49.500Z,2.27
2023-01-31T03:36:45.353Z,2.20
2023-01-31T03:40:03.454Z,1.98
2023-01-31T03:42:59.448Z,1.87
2023-01-31T03:45:57.254Z,1.60
2023-01-31T03:48:48.135Z,2.43
2023-01-31T03:51:36.950Z,1.83
2023-01-31T03:54:30.022Z,1.30
2023-01-31T03:57:21.647Z,5.07
2023-01-31T04:00:10.258Z,2.87
2023-01-31T04:03:12.633Z,5.97
2023-01-31T04:05:58.763Z,6.37
2023-01-31T04:08:44.808Z,8.43
2023-01-31T04:11:30.070Z,7.53
2023-01-31T04:14:16.450Z,9.50
2023-01-31T04:17:01.682Z,6.67
2023-01-31T04:19:46.860Z,6.00
2023-01-31T04:22:32.248Z,6.37
2023-01-31T04:25:18.001Z,8.43
2023-01-31T04:28:04.505Z,6.00
2023-01-31T04:30:57.748Z,6.90
2023-01-31T04:33:43.045Z,8.63
2023-01-31T04:36:28.285Z,4.93
2023-01-31T04:39:14.603Z,4.43
2023-01-31T04:41:59.845Z,5.20
2023-01-31T04:44:45.235Z,5.50
2023-01-31T04:47:31.024Z,4.23
2023-01-31T04:50:16.750Z,5.47
2023-01-31T04:53:02.047Z,4.77
2023-01-31T04:55:48.380Z,4.70
2023-01-31T04:58:37.319Z,5.07
2023-01-31T05:01:22.823Z,4.53
2023-01-31T05:04:08.982Z,4.73
2023-01-31T05:06:54.398Z,7.27
2023-01-31T05:09:40.664Z,8.90
2023-01-31T05:12:26.869Z,8.97
2023-01-31T05:15:12.573Z,11.03
2023-01-31T05:18:04.707Z,8.23
2023-01-31T05:20:50.477Z,7.97
2023-01-31T05:23:36.237Z,10.97
2023-01-31T05:26:21.638Z,8.20
2023-01-31T05:29:07.641Z,6.83
2023-01-31T05:31:54.726Z,4.80
2023-01-31T05:34:40.508Z,5.97
2023-01-31T05:37:25.692Z,6.77
2023-01-31T05:40:16.962Z,6.27
2023-01-31T05:43:03.155Z,8.13
2023-01-31T05:45:49.928Z,6.67
2023-01-31T05:48:35.535Z,5.97
2023-01-31T05:51:21.409Z,8.07
2023-01-31T05:54:07.257Z,9.43
2023-01-31T05:56:52.567Z,6.23
2023-01-31T05:59:38.009Z,5.27
2023-01-31T06:02:23.302Z,7.40
2023-01-31T06:05:09.285Z,7.77
2023-01-31T06:07:54.550Z,8.87
2023-01-31T06:10:40.110Z,7.67
2023-01-31T06:13:25.565Z,5.77
2023-01-31T06:16:10.871Z,5.80
2023-01-31T06:18:57.052Z,5.50
2023-01-31T06:21:42.131Z,5.57
2023-01-31T06:24:27.491Z,4.73
2023-01-31T06:27:12.887Z,5.50
2023-01-31T06:29:58.412Z,5.37
2023-01-31T06:32:43.759Z,7.23
2023-01-31T06:35:29.587Z,5.17
2023-01-31T06:38:16.324Z,4.20
2023-01-31T06:41:01.630Z,6.57
2023-01-31T06:43:46.765Z,5.30
2023-01-31T06:46:32.947Z,5.13
2023-01-31T06:49:18.499Z,6.50
2023-01-31T06:52:04.407Z,5.70
2023-01-31T06:54:51.313Z,4.77
2023-01-31T06:57:36.634Z,6.00
2023-01-31T07:00:22.640Z,6.47
2023-01-31T07:03:07.861Z,5.67
2023-01-31T07:05:53.178Z,4.37
2023-01-31T07:08:38.448Z,6.90
2023-01-31T07:11:23.724Z,5.57
2023-01-31T07:14:09.138Z,3.47
2023-01-31T07:16:54.328Z,4.50
2023-01-31T07:19:39.963Z,4.73
2023-01-31T07:22:26.215Z,4.60
2023-01-31T07:25:11.358Z,5.43
2023-01-31T07:27:56.491Z,6.17
2023-01-31T07:30:43.838Z,2.87
2023-01-31T07:33:30.197Z,4.13
2023-01-31T07:36:16.592Z,4.53
2023-01-31T07:39:02.011Z,5.80
2023-01-31T07:41:47.283Z,4.93
2023-01-31T07:44:32.582Z,3.50
2023-01-31T07:47:17.863Z,5.00
2023-01-31T07:50:04.163Z,3.83
2023-01-31T07:52:50.096Z,4.50
2023-01-31T07:55:35.707Z,4.60
2023-01-31T07:58:20.969Z,5.47
2023-01-31T08:01:24.918Z,5.43
2023-01-31T08:04:21.117Z,3.70
2023-01-31T08:07:07.148Z,4.03
2023-01-31T08:09:52.524Z,2.47
2023-01-31T08:12:38.149Z,2.83
2023-01-31T08:15:23.666Z,5.40
2023-01-31T08:18:08.920Z,5.03
2023-01-31T08:20:54.046Z,5.37
2023-01-31T08:23:41.167Z,5.17
2023-01-31T08:26:26.775Z,3.93
2023-01-31T08:29:12.179Z,5.73
2023-01-31T08:31:58.153Z,4.47
2023-01-31T08:34:43.698Z,4.47
2023-01-31T08:37:29.213Z,4.90
2023-01-31T08:40:14.823Z,4.50
2023-01-31T08:43:01.109Z,4.13
2023-01-31T08:45:46.902Z,4.70
2023-01-31T08:48:37.030Z,4.33
2023-01-31T08:51:22.907Z,4.47
2023-01-31T08:54:10.536Z,4.23
2023-01-31T08:56:55.635Z,4.97
2023-01-31T08:59:40.762Z,4.23
2023-01-31T09:02:26.104Z,6.13
2023-01-31T09:05:18.967Z,4.90
2023-01-31T09:08:06.371Z,5.03
2023-01-31T09:10:53.158Z,5.10
2023-01-31T09:13:39.142Z,4.83
2023-01-31T09:16:24.537Z,4.97
2023-01-31T09:19:09.610Z,5.03
2023-01-31T09:21:54.736Z,3.63
2023-01-31T09:24:40.349Z,2.83
2023-01-31T09:27:26.092Z,5.20
2023-01-31T09:30:11.921Z,4.67
2023-01-31T09:33:01.250Z,3.07
2023-01-31T09:36:06.206Z,2.97
2023-01-31T09:38:56.721Z,3.87
2023-01-31T09:41:44.488Z,4.63
2023-01-31T09:44:33.276Z,4.53
2023-01-31T09:47:31.187Z,3.00
2023-01-31T09:50:34.850Z,4.90
2023-01-31T09:53:22.779Z,2.80
2023-01-31T09:56:21.112Z,6.27
2023-01-31T09:59:48.266Z,3.37
2023-01-31T10:02:51.250Z,3.23
2023-01-31T10:05:49.232Z,4.55
2023-01-31T10:09:01.032Z,4.23
2023-01-31T10:11:52.115Z,4.10
2023-01-31T10:14:47.755Z,3.60
2023-01-31T10:17:39.494Z,3.00
2023-01-31T10:20:39.932Z,2.90
2023-01-31T10:23:32.164Z,5.63
2023-01-31T10:26:35.003Z,4.67
2023-01-31T10:29:40.732Z,2.13
2023-01-31T10:32:32.213Z,6.07
2023-01-31T10:35:43.341Z,2.97
2023-01-31T10:38:34.356Z,3.80
2023-01-31T10:41:31.989Z,3.60
2023-01-31T10:44:27.757Z,3.33
2023-01-31T10:47:18.212Z,3.57
2023-01-31T10:50:40.258Z,2.67
2023-01-31T10:53:40.505Z,3.47
2023-01-31T10:56:41.046Z,4.77
2023-01-31T10:59:34.653Z,1.97
2023-01-31T11:02:28.849Z,2.73
2023-01-31T11:05:20.956Z,2.80
2023-01-31T11:08:37.864Z,3.83
2023-01-31T11:11:25.119Z,3.80
2023-01-31T11:14:18.674Z,2.73
2023-01-31T11:17:13.913Z,3.73
2023-01-31T11:20:31.433Z,3.87
2023-01-31T11:23:25.539Z,2.97
2023-01-31T11:26:11.120Z,2.13
2023-01-31T11:28:59.767Z,2.17
2023-01-31T11:31:47.733Z,6.33
2023-01-31T11:34:33.890Z,2.93
2023-01-31T11:37:19.234Z,3.03
2023-01-31T11:40:22.984Z,1.97
2023-01-31T11:43:17.172Z,4.10
2023-01-31T11:46:03.930Z,3.73
2023-01-31T11:48:50.973Z,3.07
2023-01-31T11:52:21.952Z,2.67
2023-01-31T11:55:09.480Z,2.83
2023-01-31T11:58:00.625Z,2.50
2023-01-31T12:01:24.102Z,3.13
2023-01-31T12:04:41.734Z,2.47
2023-01-31T12:07:32.248Z,1.70
2023-01-31T12:10:42.634Z,3.10
2023-01-31T12:13:29.044Z,3.03
2023-01-31T12:16:18.318Z,2.60
2023-01-31T12:19:12.302Z,2.47
2023-01-31T12:22:23.190Z,2.60
2023-01-31T12:25:36.125Z,3.17
2023-01-31T12:28:43.578Z,4.05
2023-01-31T12:31:57.922Z,2.10
2023-01-31T12:35:01.677Z,2.67
2023-01-31T12:38:15.236Z,3.43
2023-01-31T12:41:18.752Z,4.13
2023-01-31T12:44:25.904Z,4.50
2023-01-31T12:47:20.439Z,4.60
2023-01-31T12:50:12.025Z,4.77
2023-01-31T12:53:19.037Z,2.93
2023-01-31T12:56:13.391Z,2.10
2023-01-31T12:59:17.030Z,3.63
2023-01-31T13:02:08.366Z,2.30
2023-01-31T13:05:16.819Z,3.80
2023-01-31T13:08:34.950Z,5.73
2023-01-31T13:11:26.727Z,5.03
2023-01-31T13:14:22.913Z,3.47
2023-01-31T13:17:13.819Z,3.20
2023-01-31T13:20:11.932Z,4.33
2023-01-31T13:23:04.038Z,2.40
2023-01-31T13:26:09.660Z,2.42
2023-01-31T13:29:07.404Z,1.97
2023-01-31T13:32:02.093Z,4.40
2023-01-31T13:35:05.767Z,6.07
2023-01-31T13:37:59.927Z,5.50
2023-01-31T13:40:52.522Z,6.27
2023-01-31T13:43:38.025Z,8.02
2023-01-31T13:46:32.166Z,7.93
2023-01-31T13:49:47.253Z,6.87
2023-01-31T13:52:51.601Z,7.97
2023-01-31T13:55:40.863Z,10.27
2023-01-31T13:58:34.232Z,8.67
2023-01-31T14:01:24.654Z,8.57
2023-01-31T14:04:15.986Z,6.93
2023-01-31T14:07:07.350Z,10.00
2023-01-31T14:09:52.641Z,10.40
2023-01-31T14:12:38.727Z,10.73
2023-01-31T14:15:48.211Z,12.63
2023-01-31T14:18:40.019Z,12.63
2023-01-31T14:21:31.195Z,12.07
2023-01-31T14:24:41.207Z,10.20
2023-01-31T14:27:28.615Z,10.90
2023-01-31T14:30:26.304Z,9.47
2023-01-31T14:33:11.596Z,8.53
2023-01-31T14:36:04.533Z,8.87
2023-01-31T14:38:52.921Z,9.20
2023-01-31T14:41:50.425Z,8.67
2023-01-31T14:44:54.556Z,10.40
2023-01-31T14:48:00.123Z,8.90
2023-01-31T14:51:05.980Z,6.60
2023-01-31T14:54:05.527Z,8.90
2023-01-31T15:00:40.209Z,7.10
2023-01-31T15:03:54.315Z,8.47
2023-01-31T15:06:43.831Z,10.30
2023-01-31T15:09:37.821Z,9.83
2023-01-31T15:12:56.138Z,8.30
2023-01-31T15:15:48.978Z,9.37
2023-01-31T15:18:34.675Z,11.73
2023-01-31T15:21:26.656Z,6.73
2023-01-31T15:24:34.140Z,9.33
2023-01-31T15:27:28.540Z,6.83
2023-01-31T15:30:19.667Z,11.63
2023-01-31T15:33:45.543Z,6.23
2023-01-31T15:36:37.276Z,9.43
2023-01-31T15:39:29.499Z,9.13
2023-01-31T15:42:27.798Z,5.43
2023-01-31T15:45:22.969Z,8.87
2023-01-31T15:48:13.503Z,12.07
2023-01-31T15:51:00.156Z,7.27
2023-01-31T15:53:45.999Z,9.33
2023-01-31T15:56:34.010Z,7.77
2023-01-31T15:59:19.718Z,7.10
2023-01-31T16:02:15.984Z,5.43
2023-01-31T16:05:05.011Z,6.67
2023-01-31T16:07:50.659Z,6.70
2023-01-31T16:10:36.291Z,8.30
2023-01-31T16:13:22.714Z,8.40
2023-01-31T16:16:10.652Z,5.87
2023-01-31T16:18:59.011Z,8.23
2023-01-31T16:21:45.455Z,9.50
2023-01-31T16:24:32.128Z,7.77
2023-01-31T16:27:18.087Z,6.40
2023-01-31T16:30:04.771Z,7.33
2023-01-31T16:32:51.864Z,6.70
2023-01-31T16:35:37.448Z,6.77
2023-01-31T16:38:27.072Z,5.87
2023-01-31T16:41:14.549Z,4.83
2023-01-31T16:44:01.393Z,5.00
2023-01-31T16:46:49.184Z,8.07
2023-01-31T16:49:37.209Z,4.13
2023-01-31T16:52:29.271Z,8.53
2023-01-31T16:55:19.121Z,6.87
2023-01-31T16:58:04.738Z,7.27
2023-01-31T17:00:51.292Z,6.93
2023-01-31T17:03:36.783Z,6.43
2023-01-31T17:06:22.521Z,5.70
2023-01-31T17:09:09.334Z,4.90
2023-01-31T17:11:55.616Z,7.90
2023-01-31T17:14:41.072Z,5.77
2023-01-31T17:17:30.551Z,7.53
2023-01-31T17:20:17.844Z,5.30
2023-01-31T17:23:03.743Z,6.77
2023-01-31T17:25:49.281Z,5.83
2023-01-31T17:28:34.594Z,4.57
2023-01-31T17:31:23.245Z,6.77
2023-01-31T17:34:13.936Z,6.80
2023-01-31T17:36:59.312Z,4.97
2023-01-31T17:39:44.570Z,5.37
2023-01-31T17:42:29.814Z,8.77
2023-01-31T17:45:19.325Z,6.50
2023-01-31T17:48:06.139Z,4.87
2023-01-31T17:50:53.632Z,4.37
2023-01-31T17:53:49.378Z,3.47
2023-01-31T17:56:36.084Z,5.43
2023-01-31T17:59:26.888Z,8.90
2023-01-31T18:02:12.995Z,4.23
2023-01-31T18:04:58.487Z,3.63
2023-01-31T18:07:43.832Z,3.60
2023-01-31T18:10:29.051Z,12.33
2023-01-31T18:13:14.429Z,8.63
2023-01-31T18:16:12.006Z,7.03
2023-01-31T18:18:57.488Z,7.73
2023-01-31T18:21:53.485Z,5.73
2023-01-31T18:24:40.870Z,8.60
2023-01-31T18:27:26.048Z,5.03
2023-01-31T18:30:11.941Z,8.67
2023-01-31T18:32:57.863Z,4.97
2023-01-31T18:35:43.022Z,6.00
2023-01-31T18:38:29.573Z,7.27
2023-01-31T18:41:18.516Z,6.77
2023-01-31T18:44:04.656Z,4.83
2023-01-31T18:46:50.364Z,7.03
2023-01-31T18:49:35.333Z,8.33
2023-01-31T18:52:20.559Z,8.57
2023-01-31T18:55:06.307Z,3.90
2023-01-31T18:57:51.462Z,4.60
2023-01-31T19:00:37.060Z,5.77
2023-01-31T19:03:22.286Z,6.00
2023-01-31T19:06:13.649Z,3.70
2023-01-31T19:08:58.983Z,5.13
2023-01-31T19:11:45.201Z,4.07
2023-01-31T19:14:30.859Z,5.97
2023-01-31T19:17:17.549Z,7.73
2023-01-31T19:20:04.582Z,6.87
2023-01-31T19:22:50.055Z,6.57
2023-01-31T19:25:39.331Z,3.67
2023-01-31T19:28:25.525Z,4.57
2023-01-31T19:31:14.974Z,5.50
2023-01-31T19:34:02.683Z,5.97
2023-01-31T19:36:49.331Z,5.33
2023-01-31T19:39:34.759Z,4.13
2023-01-31T19:42:21.647Z,6.57
2023-01-31T19:45:11.381Z,5.43
2023-01-31T19:47:59.975Z,4.40
2023-01-31T19:50:45.153Z,3.63
2023-01-31T19:53:30.435Z,3.30
2023-01-31T19:56:16.834Z,7.17
2023-01-31T19:59:02.742Z,6.30
2023-01-31T20:01:48.304Z,3.10
2023-01-31T20:04:33.511Z,3.97
2023-01-31T20:07:19.013Z,4.80
2023-01-31T20:10:05.215Z,2.83
2023-01-31T20:12:50.587Z,3.70
2023-01-31T20:15:36.067Z,5.63
2023-01-31T20:18:21.401Z,4.27
2023-01-31T20:21:08.945Z,3.10
2023-01-31T20:23:54.253Z,5.17
2023-01-31T20:26:39.573Z,3.80
2023-01-31T20:29:25.020Z,8.03
2023-01-31T20:32:13.430Z,3.10
2023-01-31T20:35:00.226Z,2.90
2023-01-31T20:37:45.907Z,3.97
2023-01-31T20:40:31.135Z,8.07
2023-01-31T20:43:16.474Z,3.47
2023-01-31T20:46:06.923Z,3.63
2023-01-31T20:48:52.849Z,4.13
2023-01-31T20:51:38.160Z,3.30
2023-01-31T20:54:23.823Z,3.33
2023-01-31T20:57:09.332Z,3.07
2023-01-31T20:59:54.637Z,4.07
2023-01-31T21:02:39.923Z,3.00
2023-01-31T21:05:25.382Z,3.50
2023-01-31T21:08:11.078Z,4.23
2023-01-31T21:10:57.913Z,3.77
2023-01-31T21:13:44.017Z,4.00
2023-01-31T21:16:29.240Z,2.77
2023-01-31T21:19:17.880Z,3.77
2023-01-31T21:22:03.452Z,2.13
2023-01-31T21:24:48.647Z,3.40
2023-01-31T21:27:34.180Z,2.20
2023-01-31T21:30:19.788Z,3.70
2023-01-31T21:33:05.408Z,4.17
2023-01-31T21:35:50.631Z,2.90
2023-01-31T21:38:36.317Z,3.17
2023-01-31T21:41:40.181Z,4.50
2023-01-31T21:44:25.574Z,5.37
2023-01-31T21:47:11.580Z,2.80
2023-01-31T21:49:57.022Z,2.87
2023-01-31T21:52:42.368Z,3.77
2023-01-31T21:55:27.603Z,4.07
2023-01-31T21:58:13.094Z,2.70
2023-01-31T22:01:04.174Z,4.03
2023-01-31T22:03:51.845Z,3.53
2023-01-31T22:06:42.233Z,3.17
2023-01-31T22:09:27.900Z,5.30
2023-01-31T22:12:13.447Z,3.70
2023-01-31T22:14:58.783Z,3.27
2023-01-31T22:17:44.178Z,3.67
2023-01-31T22:20:29.412Z,2.37
2023-01-31T22:23:14.639Z,3.03
2023-01-31T22:26:05.521Z,4.33
2023-01-31T22:28:52.159Z,4.30
2023-01-31T22:31:37.942Z,2.77
2023-01-31T22:34:23.255Z,2.00
2023-01-31T22:37:08.449Z,4.37
2023-01-31T22:39:53.686Z,2.30
2023-01-31T22:42:38.986Z,2.17
2023-01-31T22:45:24.317Z,2.83
2023-01-31T22:48:09.543Z,3.90
2023-01-31T22:50:59.074Z,3.00
2023-01-31T22:53:44.271Z,3.20
2023-01-31T22:56:31.654Z,2.63
2023-01-31T22:59:16.743Z,2.70
2023-01-31T23:02:02.143Z,3.67
2023-01-31T23:04:47.315Z,2.23
2023-01-31T23:07:32.660Z,2.43
2023-01-31T23:10:18.140Z,2.50
2023-01-31T23:13:04.004Z,2.07
2023-01-31T23:15:49.330Z,2.83
2023-01-31T23:18:35.138Z,2.90
2023-01-31T23:21:20.765Z,2.90
2023-01-31T23:24:07.855Z,2.10
2023-01-31T23:26:54.703Z,3.50
2023-01-31T23:29:39.904Z,2.27
2023-01-31T23:32:25.903Z,2.43
2023-01-31T23:35:11.470Z,2.83
2023-01-31T23:37:57.092Z,3.33
2023-01-31T23:40:42.590Z,2.20
2023-01-31T23:43:28.173Z,2.17
2023-01-31T23:46:13.605Z,2.20
2023-01-31T23:48:58.842Z,3.43
2023-01-31T23:51:44.136Z,3.23
2023-01-31T23:54:29.461Z,2.33
2023-01-31T23:57:14.842Z,2.80
